• Join FlightAware (Why Join?)
  • Login
  • US Flag 
03:49PM EST


 

Airport Tracker/Info


-or-


 

Live Flight TrackerFlight Track Log ✈ SKW6345 ✈ 16-Jun-2013 ✈ KDEN - KGFK

Flight Track Log - Related Links

Times and Time Zones

All times are in EDT time to prevent confusion due to time zone crossing. See the SKW6345 flight status page for this flight to view local times or setup timezone preferences in your user account.

Time Position Orientation Groundspeed Altitude Reporting Facility
EDT Latitude Longitude Course Direction KTS MPH feet Rate Location/Type
05:13PM 39.8500 -104.7333 285° West 167 192 6,700  Level Denver TRACON
05:14PM 39.8667 -104.8167 285° West 236 272 8,300 1,680 Climbing Denver TRACON
05:15PM 39.9167 -104.9000 308° West 291 335 10,100 2,160 Climbing Denver TRACON
05:16PM 39.9908 -104.9439 336° Northwest 300 345 12,800 2,280 Climbing Denver Center
05:17PM 40.0750 -104.9175 13° North 309 356 15,000 1,980 Climbing Denver Center
05:18PM 40.1686 -104.8883 13° North 324 373 17,000 1,260 Climbing Denver Center
05:19PM 40.2625 -104.8600 13° North 345 397 17,700 600 Climbing Denver Center
05:20PM 40.3758 -104.8286 12° North 394 453 18,300 960 Climbing Denver Center
05:21PM 40.4842 -104.8019 11° North 396 456 20,000 1,320 Climbing Denver Center
05:22PM 40.6122 -104.7647 12° North 382 440 21,400 1,260 Climbing Denver Center
05:23PM 40.7114 -104.6736 35° Northeast 400 460 22,700 1,020 Climbing Denver Center
05:24PM 40.7969 -104.5975 34° Northeast 388 447 23,600 720 Climbing Denver Center
05:26PM 40.8914 -104.5108 35° Northeast 406 467 24,200 480 Climbing Denver Center
05:27PM 40.9900 -104.4231 34° Northeast 420 483 24,700 480 Climbing Denver Center
05:28PM 41.0914 -104.3208 37° Northeast 428 493 25,300 480 Climbing Denver Center
05:29PM 41.2008 -104.1633 47° Northeast 450 518 25,900 540 Climbing Denver Center
05:30PM 41.2983 -104.0247 47° Northeast 457 526 26,500 480 Climbing Denver Center
05:31PM 41.3814 -103.9025 48° Northeast 463 533 27,000 480 Climbing Denver Center
05:32PM 41.4817 -103.7586 47° Northeast 472 543 27,500 480 Climbing Denver Center
05:33PM 41.5758 -103.6458 42° Northeast 478 550 28,000 480 Climbing Denver Center
05:34PM 41.6978 -103.5369 34° Northeast 474 545 28,600 480 Climbing Denver Center
05:35PM 41.8044 -103.4428 33° Northeast 480 552 29,100 600 Climbing Denver Center
05:36PM 41.9278 -103.3317 34° Northeast 479 551 29,900 660 Climbing Denver Center
05:37PM 42.0314 -103.2386 34° Northeast 472 543 30,700 780 Climbing Denver Center
05:38PM 42.1689 -103.1142 34° Northeast 468 539 31,700 960 Climbing Denver Center
05:39PM 42.2714 -103.0294 31° Northeast 456 525 32,800 600 Climbing Denver Center
05:40PM 42.3978 -102.9611 22° Northeast 438 504 33,000 60 Climbing Denver Center
05:42PM 42.5086 -102.9019 21° North 447 514 33,000  Level Denver Center
05:43PM 42.6522 -102.8028 27° Northeast 452 520 33,000  Level Denver Center
05:44PM 42.7872 -102.6742 35° Northeast 465 535 33,000  Level Denver Center
05:45PM 42.8881 -102.5769 35° Northeast 464 534 33,000  Level Denver Center
05:46PM 43.0083 -102.4642 34° Northeast 467 537 33,000  Level Denver Center
05:47PM 43.1097 -102.3664 35° Northeast 467 537 33,000  Level Denver Center
05:48PM 43.2275 -102.2536 35° Northeast 462 532 33,000  Level Denver Center
05:49PM 43.3258 -102.1575 35° Northeast 455 524 33,000  Level Denver Center
05:50PM 43.4383 -102.0511 34° Northeast 454 522 33,000  Level Denver Center
05:51PM 43.5406 -101.9500 36° Northeast 452 520 33,000  Level Denver Center
05:52PM 43.6422 -101.8483 36° Northeast 452 520 33,000  Level Denver Center
05:53PM 43.7464 -101.7486 35° Northeast 455 524 33,000  Level Denver Center
05:54PM 43.8692 -101.6250 36° Northeast 456 525 33,000  Level Denver Center
05:55PM 43.9286 -101.5633 37° Northeast 454 522 33,000  Level Minneapolis Center
05:56PM 43.9931 -101.5025 34° Northeast 456 525 33,000  Level Denver Center
05:57PM 44.0958 -101.4006 35° Northeast 453 521 33,000  Level Denver Center
05:57PM 44.1356 -101.3578 38° Northeast 456 525 33,000  Level Minneapolis Center
05:58PM 44.2597 -101.2325 36° Northeast 458 527 33,000  Level Minneapolis Center
05:59PM 44.3639 -101.1297 35° Northeast 459 528 33,000  Level Minneapolis Center
06:00PM 44.4661 -101.0247 36° Northeast 457 526 33,000  Level Minneapolis Center
06:01PM 44.5697 -100.9208 36° Northeast 457 526 33,000  Level Minneapolis Center
06:02PM 44.6725 -100.8164 36° Northeast 457 526 33,000  Level Minneapolis Center
06:03PM 44.7764 -100.7094 36° Northeast 459 528 33,000  Level Minneapolis Center
06:04PM 44.8794 -100.6042 36° Northeast 457 526 33,000  Level Minneapolis Center
06:05PM 45.0061 -100.4750 36° Northeast 463 533 33,000  Level Minneapolis Center
06:07PM 45.1100 -100.3669 36° Northeast 460 529 33,000  Level Minneapolis Center
06:08PM 45.2358 -100.2356 36° Northeast 460 529 33,000  Level Minneapolis Center
06:09PM 45.3419 -100.1236 37° Northeast 466 536 33,000  Level Minneapolis Center
06:10PM 45.4458 -100.0125 37° Northeast 465 535 33,000  Level Minneapolis Center
06:12PM 45.6539 -99.7919 37° Northeast 464 534 33,000  Level Minneapolis Center
06:13PM 45.7569 -99.6811 37° Northeast 465 535 33,000  Level Minneapolis Center
06:14PM 45.8611 -99.5697 37° Northeast 465 535 33,000  Level Minneapolis Center
06:15PM 45.9644 -99.4583 37° Northeast 465 535 33,000  Level Minneapolis Center
06:16PM 46.0892 -99.3208 37° Northeast 469 540 33,000  Level Minneapolis Center
06:17PM 46.1894 -99.2114 37° Northeast 467 537 33,000  Level Minneapolis Center
06:18PM 46.2922 -99.0972 37° Northeast 469 540 33,000  Level Minneapolis Center
06:19PM 46.3947 -98.9825 38° Northeast 468 539 33,000  Level Minneapolis Center
06:20PM 46.4981 -98.8694 37° Northeast 468 539 33,000 -300 Level Minneapolis Center
06:21PM 46.6206 -98.7311 38° Northeast 467 537 32,500 -1,500 Descending Minneapolis Center
06:22PM 46.7278 -98.6108 38° Northeast 484 557 30,000 -2,460 Descending Minneapolis Center
06:23PM 46.8364 -98.4869 38° Northeast 497 572 27,500 -2,460 Descending Minneapolis Center
06:24PM 46.9383 -98.3728 37° Northeast 475 547 25,000 -2,400 Descending Minneapolis Center
06:25PM 47.0344 -98.2631 38° Northeast 451 519 22,700 -2,220 Descending Minneapolis Center
06:26PM 47.1275 -98.1561 38° Northeast 434 499 20,500 -2,460 Descending Minneapolis Center
06:27PM 47.2358 -98.0328 38° Northeast 418 481 17,700 -2,640 Descending Minneapolis Center
06:28PM 47.2669 -97.9944 40° Northeast 406 467 16,900 -2,160 Descending Minneapolis Center
06:28PM 47.3214 -97.9336 37° Northeast 402 463 15,500 -2,100 Descending Minneapolis Center
06:29PM 47.3564 -97.8922 39° Northeast 393 452 14,600 -2,340 Descending Minneapolis Center
06:29PM 47.4056 -97.8258 42° Northeast 389 448 13,100 -2,400 Descending Minneapolis Center
06:30PM 47.4347 -97.7822 45° Northeast 369 425 12,200 -1,560 Descending Minneapolis Center
06:30PM 47.4686 -97.7342 44° Northeast 360 414 11,500 -1,380 Descending Minneapolis Center
06:31PM 47.5033 -97.6825 45° Northeast 333 383 10,800 -1,860 Descending Minneapolis Center
06:31PM 47.5419 -97.6278 44° Northeast 329 379 9,600 -1,800 Descending Minneapolis Center
06:32PM 47.5622 -97.5964 46° Northeast 312 359 9,000 -1,320 Descending Minneapolis Center
06:32PM 47.5908 -97.5592 41° Northeast 316 364 8,300 -1,620 Descending Minneapolis Center
06:33PM 47.6269 -97.5031 46° Northeast 311 358 7,400 -1,860 Descending Minneapolis Center
06:33PM 47.6661 -97.4469 44° Northeast 311 358 6,400 -1,620 Descending Minneapolis Center
06:34PM 47.6858 -97.4194 43° Northeast 310 357 5,800 -1,680 Descending Minneapolis Center
06:34PM 47.7275 -97.3575 45° Northeast 302 348 4,700 -1,740 Descending Minneapolis Center
06:35PM 47.7444 -97.3297 48° Northeast 291 335 4,100 -1,560 Descending Minneapolis Center
06:35PM 47.7775 -97.2856 42° Northeast 287 330 3,100 -1,140 Descending Minneapolis Center
06:36PM 47.7956 -97.2564 47° Northeast 267 307 3,000 -240 Descending Minneapolis Center
06:36PM 47.8178 -97.2258 43° Northeast 275 316 2,900 -540 Descending Minneapolis Center
06:38PM 47.8689 -97.1831 29° Northeast 181 208 2,100 -780 Descending Minneapolis Center
06:39PM 47.9067 -97.1828 360° North 149 171 1,400 -480 Descending Minneapolis Center
06:40PM 47.9419 -97.1839 359° North 144 166 1,200 -240 Descending Minneapolis Center
06:42PM 47.9333 -97.1667 146° Southeast  Level FlightAware Approximate